<?xml version="1.0" encoding="utf-8"?>
<gpx xmlns:xsi="http://www.w3.org/2001/XMLSchema-instance" xmlns:xsd="http://www.w3.org/2001/XMLSchema" version="1.1" creator="Shapelink.com" xmlns="http://www.topografix.com/GPX/1/1" xmlns:gpxtpx="http://www.garmin.com/xmlschemas/TrackPointExtension/v1">
  <metadata>
    <name>Löpning 9.65 km, 2019-10-02</name>
    <desc></desc>
    <author><name>Bengt Norberg</name></author> 
    <time>2019-10-02T07:35:53Z</time>
  </metadata>
  <trk>
    <name>Löpning 9.65 km, 2019-10-02</name>
    <trkseg>
      <trkpt lat="59.819382751795" lon="16.98550376957">
        <ele>45.6</ele>
        <time>2019-10-02T07:35:53Z</time>
      </trkpt>
      <trkpt lat="59.819455339049" lon="16.985848517117">
        <ele>46.2</ele>
        <time>2019-10-02T07:36:00Z</time>
      </trkpt>
      <trkpt lat="59.819539660963" lon="16.986187481153">
        <ele>41.6</ele>
        <time>2019-10-02T07:36:10Z</time>
      </trkpt>
      <trkpt lat="59.819598920996" lon="16.986549746871">
        <ele>40.4</ele>
        <time>2019-10-02T07:36:18Z</time>
      </trkpt>
      <trkpt lat="59.819660444142" lon="16.986906815811">
        <ele>38.6</ele>
        <time>2019-10-02T07:36:26Z</time>
      </trkpt>
      <trkpt lat="59.81972850517" lon="16.987279139809">
        <ele>37.6</ele>
        <time>2019-10-02T07:36:34Z</time>
      </trkpt>
      <trkpt lat="59.819788771031" lon="16.987663701381">
        <ele>35.6</ele>
        <time>2019-10-02T07:36:42Z</time>
      </trkpt>
      <trkpt lat="59.819847444331" lon="16.988036444474">
        <ele>34.8</ele>
        <time>2019-10-02T07:36:50Z</time>
      </trkpt>
      <trkpt lat="59.819908883658" lon="16.988406170083">
        <ele>34.6</ele>
        <time>2019-10-02T07:36:58Z</time>
      </trkpt>
      <trkpt lat="59.819968562786" lon="16.988777404434">
        <ele>34.4</ele>
        <time>2019-10-02T07:37:06Z</time>
      </trkpt>
      <trkpt lat="59.820030840303" lon="16.989141765627">
        <ele>34.6</ele>
        <time>2019-10-02T07:37:14Z</time>
      </trkpt>
      <trkpt lat="59.820061853333" lon="16.989521968611">
        <ele>36</ele>
        <time>2019-10-02T07:37:22Z</time>
      </trkpt>
      <trkpt lat="59.820173667879" lon="16.989841654277">
        <ele>36.4</ele>
        <time>2019-10-02T07:37:30Z</time>
      </trkpt>
      <trkpt lat="59.820274921231" lon="16.990150443473">
        <ele>36</ele>
        <time>2019-10-02T07:37:38Z</time>
      </trkpt>
      <trkpt lat="59.820377180411" lon="16.990462836886">
        <ele>35.2</ele>
        <time>2019-10-02T07:37:46Z</time>
      </trkpt>
      <trkpt lat="59.820481618885" lon="16.990768524779">
        <ele>35.6</ele>
        <time>2019-10-02T07:37:54Z</time>
      </trkpt>
      <trkpt lat="59.820587147006" lon="16.991078655079">
        <ele>35.8</ele>
        <time>2019-10-02T07:38:02Z</time>
      </trkpt>
      <trkpt lat="59.820692926584" lon="16.991398340745">
        <ele>35.8</ele>
        <time>2019-10-02T07:38:10Z</time>
      </trkpt>
      <trkpt lat="59.820797784153" lon="16.991707968131">
        <ele>35.8</ele>
        <time>2019-10-02T07:38:18Z</time>
      </trkpt>
      <trkpt lat="59.820895517107" lon="16.992026396512">
        <ele>36.2</ele>
        <time>2019-10-02T07:38:26Z</time>
      </trkpt>
      <trkpt lat="59.821008505119" lon="16.992345327807">
        <ele>35.2</ele>
        <time>2019-10-02T07:38:35Z</time>
      </trkpt>
      <trkpt lat="59.821099616372" lon="16.992664091464">
        <ele>36</ele>
        <time>2019-10-02T07:38:44Z</time>
      </trkpt>
      <trkpt lat="59.821210760366" lon="16.99296785152">
        <ele>35.6</ele>
        <time>2019-10-02T07:38:53Z</time>
      </trkpt>
      <trkpt lat="59.821327436414" lon="16.99327379087">
        <ele>37.6</ele>
        <time>2019-10-02T07:39:02Z</time>
      </trkpt>
      <trkpt lat="59.821435395286" lon="16.993594566183">
        <ele>38.2</ele>
        <time>2019-10-02T07:39:11Z</time>
      </trkpt>
      <trkpt lat="59.821535056077" lon="16.993902936284">
        <ele>39.8</ele>
        <time>2019-10-02T07:39:19Z</time>
      </trkpt>
      <trkpt lat="59.821650139564" lon="16.994227567271">
        <ele>40.8</ele>
        <time>2019-10-02T07:39:28Z</time>
      </trkpt>
      <trkpt lat="59.82168819339" lon="16.99433996855">
        <ele>41.2</ele>
        <time>2019-10-02T07:39:32Z</time>
      </trkpt>
      <trkpt lat="59.821672686875" lon="16.994336783428">
        <ele>39.6</ele>
        <time>2019-10-02T07:39:41Z</time>
      </trkpt>
      <trkpt lat="59.821715518384" lon="16.994431666536">
        <ele>39.8</ele>
        <time>2019-10-02T07:39:46Z</time>
      </trkpt>
      <trkpt lat="59.821811155863" lon="16.994481538841">
        <ele>39.4</ele>
        <time>2019-10-02T07:39:51Z</time>
      </trkpt>
      <trkpt lat="59.821948451385" lon="16.994744730501">
        <ele>39.6</ele>
        <time>2019-10-02T07:40:01Z</time>
      </trkpt>
      <trkpt lat="59.822043921226" lon="16.995045975987">
        <ele>39.6</ele>
        <time>2019-10-02T07:40:10Z</time>
      </trkpt>
      <trkpt lat="59.822193035227" lon="16.995283267576">
        <ele>40</ele>
        <time>2019-10-02T07:40:20Z</time>
      </trkpt>
      <trkpt lat="59.822295210588" lon="16.99540279347">
        <ele>38</ele>
        <time>2019-10-02T07:40:28Z</time>
      </trkpt>
      <trkpt lat="59.822221114592" lon="16.995326769637">
        <ele>38.4</ele>
        <time>2019-10-02T07:40:32Z</time>
      </trkpt>
      <trkpt lat="59.822050375289" lon="16.99517061484">
        <ele>40.6</ele>
        <time>2019-10-02T07:40:41Z</time>
      </trkpt>
      <trkpt lat="59.821945098625" lon="16.994828968596">
        <ele>42.8</ele>
        <time>2019-10-02T07:40:51Z</time>
      </trkpt>
      <trkpt lat="59.821833451717" lon="16.994536859381">
        <ele>41.2</ele>
        <time>2019-10-02T07:41:01Z</time>
      </trkpt>
      <trkpt lat="59.821661790405" lon="16.994375843082">
        <ele>41</ele>
        <time>2019-10-02T07:41:11Z</time>
      </trkpt>
      <trkpt lat="59.821546371642" lon="16.994075351967">
        <ele>41.4</ele>
        <time>2019-10-02T07:41:19Z</time>
      </trkpt>
      <trkpt lat="59.821437826037" lon="16.993767736237">
        <ele>42</ele>
        <time>2019-10-02T07:41:27Z</time>
      </trkpt>
      <trkpt lat="59.821329280432" lon="16.993443440526">
        <ele>40.6</ele>
        <time>2019-10-02T07:41:35Z</time>
      </trkpt>
      <trkpt lat="59.821224506682" lon="16.993132388217">
        <ele>40.4</ele>
        <time>2019-10-02T07:41:43Z</time>
      </trkpt>
      <trkpt lat="59.821113278869" lon="16.992807002859">
        <ele>40.6</ele>
        <time>2019-10-02T07:41:52Z</time>
      </trkpt>
      <trkpt lat="59.821009594766" lon="16.992458399638">
        <ele>39.8</ele>
        <time>2019-10-02T07:42:01Z</time>
      </trkpt>
      <trkpt lat="59.820911861812" lon="16.992139887438">
        <ele>37.4</ele>
        <time>2019-10-02T07:42:08Z</time>
      </trkpt>
      <trkpt lat="59.820799963447" lon="16.99181953122">
        <ele>37.8</ele>
        <time>2019-10-02T07:42:16Z</time>
      </trkpt>
      <trkpt lat="59.820691669299" lon="16.991511580214">
        <ele>39.8</ele>
        <time>2019-10-02T07:42:24Z</time>
      </trkpt>
      <trkpt lat="59.82059267906" lon="16.991186613951">
        <ele>42.6</ele>
        <time>2019-10-02T07:42:32Z</time>
      </trkpt>
      <trkpt lat="59.820370726348" lon="16.990602060245">
        <ele>41.8</ele>
        <time>2019-10-02T07:42:46Z</time>
      </trkpt>
      <trkpt lat="59.820271400833" lon="16.990287738995">
        <ele>41.2</ele>
        <time>2019-10-02T07:42:53Z</time>
      </trkpt>
      <trkpt lat="59.820171320947" lon="16.989968556243">
        <ele>41</ele>
        <time>2019-10-02T07:43:00Z</time>
      </trkpt>
      <trkpt lat="59.820069732319" lon="16.989652055699">
        <ele>41.6</ele>
        <time>2019-10-02T07:43:07Z</time>
      </trkpt>
      <trkpt lat="59.820002341843" lon="16.989386936202">
        <ele>41.8</ele>
        <time>2019-10-02T07:43:13Z</time>
      </trkpt>
      <trkpt lat="59.820131423103" lon="16.989257519666">
        <ele>41.6</ele>
        <time>2019-10-02T07:43:18Z</time>
      </trkpt>
      <trkpt lat="59.820317585102" lon="16.989214939614">
        <ele>43.6</ele>
        <time>2019-10-02T07:43:24Z</time>
      </trkpt>
      <trkpt lat="59.82051305101" lon="16.989143777283">
        <ele>45</ele>
        <time>2019-10-02T07:43:31Z</time>
      </trkpt>
      <trkpt lat="59.820698793914" lon="16.989052833668">
        <ele>45.8</ele>
        <time>2019-10-02T07:43:38Z</time>
      </trkpt>
      <trkpt lat="59.820898953686" lon="16.988962057691">
        <ele>46.2</ele>
        <time>2019-10-02T07:43:46Z</time>
      </trkpt>
      <trkpt lat="59.821079918907" lon="16.988883016374">
        <ele>47</ele>
        <time>2019-10-02T07:43:53Z</time>
      </trkpt>
      <trkpt lat="59.821269014571" lon="16.988795844614">
        <ele>50.6</ele>
        <time>2019-10-02T07:44:00Z</time>
      </trkpt>
      <trkpt lat="59.821454673656" lon="16.988714707822">
        <ele>52.2</ele>
        <time>2019-10-02T07:44:07Z</time>
      </trkpt>
      <trkpt lat="59.82164209294" lon="16.988627452243">
        <ele>54</ele>
        <time>2019-10-02T07:44:14Z</time>
      </trkpt>
      <trkpt lat="59.821819537763" lon="16.988531479488">
        <ele>54.4</ele>
        <time>2019-10-02T07:44:21Z</time>
      </trkpt>
      <trkpt lat="59.82199329455" lon="16.988422682426">
        <ele>54.6</ele>
        <time>2019-10-02T07:44:28Z</time>
      </trkpt>
      <trkpt lat="59.822163782396" lon="16.988304413817">
        <ele>54</ele>
        <time>2019-10-02T07:44:35Z</time>
      </trkpt>
      <trkpt lat="59.822334605518" lon="16.988189414149">
        <ele>53.6</ele>
        <time>2019-10-02T07:44:42Z</time>
      </trkpt>
      <trkpt lat="59.822512301798" lon="16.988097380887">
        <ele>54.6</ele>
        <time>2019-10-02T07:44:49Z</time>
      </trkpt>
      <trkpt lat="59.822689411345" lon="16.987993696784">
        <ele>55</ele>
        <time>2019-10-02T07:44:56Z</time>
      </trkpt>
      <trkpt lat="59.822875489525" lon="16.987845504792">
        <ele>54.6</ele>
        <time>2019-10-02T07:45:04Z</time>
      </trkpt>
      <trkpt lat="59.823055784194" lon="16.987738970843">
        <ele>56.6</ele>
        <time>2019-10-02T07:45:11Z</time>
      </trkpt>
      <trkpt lat="59.82325141774" lon="16.987629503229">
        <ele>57.6</ele>
        <time>2019-10-02T07:45:19Z</time>
      </trkpt>
      <trkpt lat="59.823428024373" lon="16.987516012303">
        <ele>57.8</ele>
        <time>2019-10-02T07:45:26Z</time>
      </trkpt>
      <trkpt lat="59.823622232996" lon="16.987397995151">
        <ele>59.6</ele>
        <time>2019-10-02T07:45:34Z</time>
      </trkpt>
      <trkpt lat="59.823798001439" lon="16.987284588044">
        <ele>60.2</ele>
        <time>2019-10-02T07:45:41Z</time>
      </trkpt>
      <trkpt lat="59.823995059908" lon="16.987183083235">
        <ele>60.8</ele>
        <time>2019-10-02T07:45:49Z</time>
      </trkpt>
      <trkpt lat="59.824168816695" lon="16.987083673901">
        <ele>60.8</ele>
        <time>2019-10-02T07:45:56Z</time>
      </trkpt>
      <trkpt lat="59.824364869336" lon="16.986998513797">
        <ele>61.8</ele>
        <time>2019-10-02T07:46:04Z</time>
      </trkpt>
      <trkpt lat="59.824544241996" lon="16.986915784444">
        <ele>62.6</ele>
        <time>2019-10-02T07:46:11Z</time>
      </trkpt>
      <trkpt lat="59.824720597172" lon="16.986846298493">
        <ele>63</ele>
        <time>2019-10-02T07:46:18Z</time>
      </trkpt>
      <trkpt lat="59.824915141071" lon="16.986743284942">
        <ele>62</ele>
        <time>2019-10-02T07:46:26Z</time>
      </trkpt>
      <trkpt lat="59.825114462653" lon="16.986642199228">
        <ele>62</ele>
        <time>2019-10-02T07:46:34Z</time>
      </trkpt>
      <trkpt lat="59.8252915722" lon="16.986548657224">
        <ele>62.4</ele>
        <time>2019-10-02T07:46:41Z</time>
      </trkpt>
      <trkpt lat="59.825468262652" lon="16.986452433012">
        <ele>63</ele>
        <time>2019-10-02T07:46:48Z</time>
      </trkpt>
      <trkpt lat="59.825646629484" lon="16.98636207613">
        <ele>63.2</ele>
        <time>2019-10-02T07:46:55Z</time>
      </trkpt>
      <trkpt lat="59.825820386271" lon="16.986260822778">
        <ele>63.8</ele>
        <time>2019-10-02T07:47:02Z</time>
      </trkpt>
      <trkpt lat="59.826015433084" lon="16.986142386531">
        <ele>61.8</ele>
        <time>2019-10-02T07:47:10Z</time>
      </trkpt>
      <trkpt lat="59.826208049146" lon="16.986008695226">
        <ele>61</ele>
        <time>2019-10-02T07:47:18Z</time>
      </trkpt>
      <trkpt lat="59.826383314675" lon="16.985900484897">
        <ele>60.2</ele>
        <time>2019-10-02T07:47:25Z</time>
      </trkpt>
      <trkpt lat="59.826542738413" lon="16.985732511621">
        <ele>59.6</ele>
        <time>2019-10-02T07:47:33Z</time>
      </trkpt>
      <trkpt lat="59.826501499465" lon="16.985386171513">
        <ele>58.6</ele>
        <time>2019-10-02T07:47:41Z</time>
      </trkpt>
      <trkpt lat="59.826462775087" lon="16.985028767297">
        <ele>56.6</ele>
        <time>2019-10-02T07:47:48Z</time>
      </trkpt>
      <trkpt lat="59.826423212519" lon="16.984661640077">
        <ele>54.8</ele>
        <time>2019-10-02T07:47:56Z</time>
      </trkpt>
      <trkpt lat="59.826371077101" lon="16.98429342321">
        <ele>51.6</ele>
        <time>2019-10-02T07:48:03Z</time>
      </trkpt>
      <trkpt lat="59.826338303872" lon="16.983941131953">
        <ele>48.8</ele>
        <time>2019-10-02T07:48:10Z</time>
      </trkpt>
      <trkpt lat="59.82630913486" lon="16.983586074669">
        <ele>46.2</ele>
        <time>2019-10-02T07:48:17Z</time>
      </trkpt>
      <trkpt lat="59.826266470989" lon="16.982959611463">
        <ele>44</ele>
        <time>2019-10-02T07:48:29Z</time>
      </trkpt>
      <trkpt lat="59.826236882882" lon="16.98256088448">
        <ele>43.2</ele>
        <time>2019-10-02T07:48:37Z</time>
      </trkpt>
      <trkpt lat="59.82620855206" lon="16.982169365931">
        <ele>44.4</ele>
        <time>2019-10-02T07:48:45Z</time>
      </trkpt>
      <trkpt lat="59.826182651989" lon="16.981808776593">
        <ele>45</ele>
        <time>2019-10-02T07:48:52Z</time>
      </trkpt>
      <trkpt lat="59.826155662271" lon="16.981453467852">
        <ele>46</ele>
        <time>2019-10-02T07:48:59Z</time>
      </trkpt>
      <trkpt lat="59.826127079992" lon="16.981068654823">
        <ele>46.6</ele>
        <time>2019-10-02T07:49:07Z</time>
      </trkpt>
      <trkpt lat="59.826096737514" lon="16.980715693014">
        <ele>46</ele>
        <time>2019-10-02T07:49:14Z</time>
      </trkpt>
      <trkpt lat="59.826062623181" lon="16.980318558592">
        <ele>46.8</ele>
        <time>2019-10-02T07:49:22Z</time>
      </trkpt>
      <trkpt lat="59.826038483309" lon="16.979963417489">
        <ele>47.2</ele>
        <time>2019-10-02T07:49:29Z</time>
      </trkpt>
      <trkpt lat="59.826014678713" lon="16.979607773472">
        <ele>47.4</ele>
        <time>2019-10-02T07:49:36Z</time>
      </trkpt>
      <trkpt lat="59.825988191909" lon="16.97925506312">
        <ele>47.6</ele>
        <time>2019-10-02T07:49:43Z</time>
      </trkpt>
      <trkpt lat="59.82599313723" lon="16.978864047485">
        <ele>47</ele>
        <time>2019-10-02T07:49:51Z</time>
      </trkpt>
      <trkpt lat="59.826092211288" lon="16.978779055019">
        <ele>47.4</ele>
        <time>2019-10-02T07:49:55Z</time>
      </trkpt>
      <trkpt lat="59.826273260328" lon="16.978679897142">
        <ele>48.2</ele>
        <time>2019-10-02T07:50:02Z</time>
      </trkpt>
      <trkpt lat="59.826457243033" lon="16.978580739265">
        <ele>51</ele>
        <time>2019-10-02T07:50:09Z</time>
      </trkpt>
      <trkpt lat="59.826632257105" lon="16.978490130926">
        <ele>51.6</ele>
        <time>2019-10-02T07:50:16Z</time>
      </trkpt>
      <trkpt lat="59.82682126895" lon="16.978404970822">
        <ele>52.6</ele>
        <time>2019-10-02T07:50:23Z</time>
      </trkpt>
      <trkpt lat="59.826996953574" lon="16.978311512637">
        <ele>51</ele>
        <time>2019-10-02T07:50:30Z</time>
      </trkpt>
      <trkpt lat="59.827173392569" lon="16.978222329221">
        <ele>50.6</ele>
        <time>2019-10-02T07:50:37Z</time>
      </trkpt>
      <trkpt lat="59.827355531256" lon="16.978135828013">
        <ele>51.4</ele>
        <time>2019-10-02T07:50:44Z</time>
      </trkpt>
      <trkpt lat="59.827550326612" lon="16.97801538011">
        <ele>51</ele>
        <time>2019-10-02T07:50:52Z</time>
      </trkpt>
      <trkpt lat="59.82773824881" lon="16.977887891411">
        <ele>49</ele>
        <time>2019-10-02T07:51:00Z</time>
      </trkpt>
      <trkpt lat="59.827910999769" lon="16.977707345285">
        <ele>47</ele>
        <time>2019-10-02T07:51:08Z</time>
      </trkpt>
      <trkpt lat="59.828086181479" lon="16.977520680372">
        <ele>47.6</ele>
        <time>2019-10-02T07:51:16Z</time>
      </trkpt>
      <trkpt lat="59.828255831135" lon="16.977316162012">
        <ele>48</ele>
        <time>2019-10-02T07:51:24Z</time>
      </trkpt>
      <trkpt lat="59.828433024501" lon="16.977129245642">
        <ele>49.2</ele>
        <time>2019-10-02T07:51:32Z</time>
      </trkpt>
      <trkpt lat="59.82860996641" lon="16.976926236024">
        <ele>48.2</ele>
        <time>2019-10-02T07:51:40Z</time>
      </trkpt>
      <trkpt lat="59.828792608011" lon="16.976743259147">
        <ele>49.2</ele>
        <time>2019-10-02T07:51:48Z</time>
      </trkpt>
      <trkpt lat="59.828957228527" lon="16.976600347752">
        <ele>48.6</ele>
        <time>2019-10-02T07:51:55Z</time>
      </trkpt>
      <trkpt lat="59.829131069133" lon="16.97641192264">
        <ele>48.4</ele>
        <time>2019-10-02T07:52:03Z</time>
      </trkpt>
      <trkpt lat="59.829289654681" lon="16.976289882176">
        <ele>50</ele>
        <time>2019-10-02T07:52:10Z</time>
      </trkpt>
      <trkpt lat="59.829411695145" lon="16.976197597457">
        <ele>50</ele>
        <time>2019-10-02T07:52:16Z</time>
      </trkpt>
      <trkpt lat="59.829432482257" lon="16.976187790634">
        <ele>49.8</ele>
        <time>2019-10-02T07:52:17Z</time>
      </trkpt>
      <trkpt lat="59.829596683678" lon="16.976022248109">
        <ele>49.6</ele>
        <time>2019-10-02T07:52:25Z</time>
      </trkpt>
      <trkpt lat="59.829651249847" lon="16.97593918348">
        <ele>50</ele>
        <time>2019-10-02T07:52:28Z</time>
      </trkpt>
      <trkpt lat="59.829829365222" lon="16.975776239344">
        <ele>50.8</ele>
        <time>2019-10-02T07:52:36Z</time>
      </trkpt>
      <trkpt lat="59.829997254679" lon="16.975574319373">
        <ele>50.8</ele>
        <time>2019-10-02T07:52:44Z</time>
      </trkpt>
      <trkpt lat="59.830176208244" lon="16.975385642804">
        <ele>51.6</ele>
        <time>2019-10-02T07:52:52Z</time>
      </trkpt>
      <trkpt lat="59.830337056905" lon="16.975184980118">
        <ele>48.8</ele>
        <time>2019-10-02T07:53:00Z</time>
      </trkpt>
      <trkpt lat="59.83050679038" lon="16.974996806463">
        <ele>47.6</ele>
        <time>2019-10-02T07:53:08Z</time>
      </trkpt>
      <trkpt lat="59.830683397013" lon="16.974802262564">
        <ele>48</ele>
        <time>2019-10-02T07:53:16Z</time>
      </trkpt>
      <trkpt lat="59.830863356406" lon="16.974615932927">
        <ele>48.6</ele>
        <time>2019-10-02T07:53:24Z</time>
      </trkpt>
      <trkpt lat="59.831030910587" lon="16.974439913027">
        <ele>49.4</ele>
        <time>2019-10-02T07:53:32Z</time>
      </trkpt>
      <trkpt lat="59.831204080641" lon="16.974274202864">
        <ele>50.4</ele>
        <time>2019-10-02T07:53:40Z</time>
      </trkpt>
      <trkpt lat="59.831356379764" lon="16.974027355909">
        <ele>50.8</ele>
        <time>2019-10-02T07:53:49Z</time>
      </trkpt>
      <trkpt lat="59.831477498219" lon="16.973766762638">
        <ele>52</ele>
        <time>2019-10-02T07:53:57Z</time>
      </trkpt>
      <trkpt lat="59.831606747117" lon="16.973536344207">
        <ele>51.4</ele>
        <time>2019-10-02T07:54:05Z</time>
      </trkpt>
      <trkpt lat="59.831620661071" lon="16.973526202108">
        <ele>51.4</ele>
        <time>2019-10-02T07:54:06Z</time>
      </trkpt>
      <trkpt lat="59.831670281919" lon="16.973467025894">
        <ele>50.8</ele>
        <time>2019-10-02T07:54:16Z</time>
      </trkpt>
      <trkpt lat="59.831699283293" lon="16.973439114167">
        <ele>51</ele>
        <time>2019-10-02T07:54:19Z</time>
      </trkpt>
      <trkpt lat="59.831743875001" lon="16.973339788652">
        <ele>50.8</ele>
        <time>2019-10-02T07:54:23Z</time>
      </trkpt>
      <trkpt lat="59.831866753655" lon="16.973130073514">
        <ele>49.8</ele>
        <time>2019-10-02T07:54:33Z</time>
      </trkpt>
      <trkpt lat="59.831893324278" lon="16.973092019688">
        <ele>49.4</ele>
        <time>2019-10-02T07:54:35Z</time>
      </trkpt>
      <trkpt lat="59.832003127168" lon="16.973310535821">
        <ele>48.2</ele>
        <time>2019-10-02T07:54:46Z</time>
      </trkpt>
      <trkpt lat="59.832184343846" lon="16.973269380692">
        <ele>48</ele>
        <time>2019-10-02T07:55:00Z</time>
      </trkpt>
      <trkpt lat="59.832195324135" lon="16.973276840583">
        <ele>47.8</ele>
        <time>2019-10-02T07:55:01Z</time>
      </trkpt>
      <trkpt lat="59.832342845575" lon="16.973239122033">
        <ele>48.4</ele>
        <time>2019-10-02T07:55:12Z</time>
      </trkpt>
      <trkpt lat="59.832483074762" lon="16.97299378382">
        <ele>49</ele>
        <time>2019-10-02T07:55:24Z</time>
      </trkpt>
      <trkpt lat="59.832611234013" lon="16.972803095595">
        <ele>49.4</ele>
        <time>2019-10-02T07:55:34Z</time>
      </trkpt>
      <trkpt lat="59.832768562276" lon="16.972634870862">
        <ele>50.2</ele>
        <time>2019-10-02T07:55:45Z</time>
      </trkpt>
      <trkpt lat="59.832877275519" lon="16.972514087683">
        <ele>50.2</ele>
        <time>2019-10-02T07:55:52Z</time>
      </trkpt>
      <trkpt lat="59.832961178338" lon="16.972346617321">
        <ele>50.4</ele>
        <time>2019-10-02T07:55:58Z</time>
      </trkpt>
      <trkpt lat="59.83314708888" lon="16.972294900998">
        <ele>49.4</ele>
        <time>2019-10-02T07:56:09Z</time>
      </trkpt>
      <trkpt lat="59.833269967534" lon="16.972337732507">
        <ele>48.2</ele>
        <time>2019-10-02T07:56:18Z</time>
      </trkpt>
      <trkpt lat="59.833288826809" lon="16.972337229593">
        <ele>48</ele>
        <time>2019-10-02T07:56:20Z</time>
      </trkpt>
      <trkpt lat="59.833332580327" lon="16.972321220164">
        <ele>47.6</ele>
        <time>2019-10-02T07:56:23Z</time>
      </trkpt>
      <trkpt lat="59.833387984686" lon="16.972392466314">
        <ele>47</ele>
        <time>2019-10-02T07:56:28Z</time>
      </trkpt>
      <trkpt lat="59.833407933608" lon="16.972440159325">
        <ele>46.6</ele>
        <time>2019-10-02T07:56:30Z</time>
      </trkpt>
      <trkpt lat="59.833512707358" lon="16.972479051341">
        <ele>46</ele>
        <time>2019-10-02T07:56:36Z</time>
      </trkpt>
      <trkpt lat="59.833700042823" lon="16.972541747953">
        <ele>46</ele>
        <time>2019-10-02T07:56:48Z</time>
      </trkpt>
      <trkpt lat="59.83372963093" lon="16.972538395193">
        <ele>46</ele>
        <time>2019-10-02T07:56:50Z</time>
      </trkpt>
      <trkpt lat="59.833756536829" lon="16.9724757824">
        <ele>47</ele>
        <time>2019-10-02T07:56:54Z</time>
      </trkpt>
      <trkpt lat="59.833805738582" lon="16.972381150749">
        <ele>50.2</ele>
        <time>2019-10-02T07:57:24Z</time>
      </trkpt>
      <trkpt lat="59.833643632636" lon="16.972348964253">
        <ele>51</ele>
        <time>2019-10-02T07:57:45Z</time>
      </trkpt>
      <trkpt lat="59.833456464809" lon="16.972404871526">
        <ele>51.6</ele>
        <time>2019-10-02T07:58:00Z</time>
      </trkpt>
      <trkpt lat="59.833447328538" lon="16.972404787707">
        <ele>51.6</ele>
        <time>2019-10-02T07:58:01Z</time>
      </trkpt>
      <trkpt lat="59.833411286368" lon="16.972352903746">
        <ele>51.4</ele>
        <time>2019-10-02T07:58:05Z</time>
      </trkpt>
      <trkpt lat="59.833351691059" lon="16.972140171124">
        <ele>51.4</ele>
        <time>2019-10-02T07:58:17Z</time>
      </trkpt>
      <trkpt lat="59.833265944222" lon="16.972007066552">
        <ele>50.8</ele>
        <time>2019-10-02T07:58:26Z</time>
      </trkpt>
      <trkpt lat="59.83336501828" lon="16.971737923743">
        <ele>50.2</ele>
        <time>2019-10-02T07:58:36Z</time>
      </trkpt>
      <trkpt lat="59.833372142895" lon="16.971554276314">
        <ele>49.6</ele>
        <time>2019-10-02T07:58:42Z</time>
      </trkpt>
      <trkpt lat="59.833440874475" lon="16.971269375533">
        <ele>48.4</ele>
        <time>2019-10-02T07:58:51Z</time>
      </trkpt>
      <trkpt lat="59.833480017948" lon="16.971154040589">
        <ele>48.2</ele>
        <time>2019-10-02T07:58:56Z</time>
      </trkpt>
      <trkpt lat="59.833420590277" lon="16.971038370369">
        <ele>48</ele>
        <time>2019-10-02T07:59:03Z</time>
      </trkpt>
      <trkpt lat="59.833394774025" lon="16.970982546915">
        <ele>47.6</ele>
        <time>2019-10-02T07:59:07Z</time>
      </trkpt>
      <trkpt lat="59.833380608614" lon="16.970886825617">
        <ele>47.4</ele>
        <time>2019-10-02T07:59:13Z</time>
      </trkpt>
      <trkpt lat="59.833357642208" lon="16.970863607754">
        <ele>47.2</ele>
        <time>2019-10-02T07:59:15Z</time>
      </trkpt>
      <trkpt lat="59.833439868647" lon="16.970624053052">
        <ele>46.8</ele>
        <time>2019-10-02T07:59:32Z</time>
      </trkpt>
      <trkpt lat="59.833503990182" lon="16.970325322136">
        <ele>47</ele>
        <time>2019-10-02T07:59:41Z</time>
      </trkpt>
      <trkpt lat="59.833553778668" lon="16.970129185676">
        <ele>49.2</ele>
        <time>2019-10-02T07:59:50Z</time>
      </trkpt>
      <trkpt lat="59.83358294768" lon="16.970080067742">
        <ele>49.4</ele>
        <time>2019-10-02T07:59:54Z</time>
      </trkpt>
      <trkpt lat="59.833621169144" lon="16.969992728344">
        <ele>49.8</ele>
        <time>2019-10-02T07:59:59Z</time>
      </trkpt>
      <trkpt lat="59.833627120293" lon="16.969963559332">
        <ele>49.8</ele>
        <time>2019-10-02T08:00:00Z</time>
      </trkpt>
      <trkpt lat="59.833665760852" lon="16.969793239124">
        <ele>50.4</ele>
        <time>2019-10-02T08:00:06Z</time>
      </trkpt>
      <trkpt lat="59.833675064761" lon="16.969727860304">
        <ele>50.8</ele>
        <time>2019-10-02T08:00:09Z</time>
      </trkpt>
      <trkpt lat="59.833722841591" lon="16.969382106929">
        <ele>52.8</ele>
        <time>2019-10-02T08:00:23Z</time>
      </trkpt>
      <trkpt lat="59.833842535123" lon="16.969375066133">
        <ele>53</ele>
        <time>2019-10-02T08:00:31Z</time>
      </trkpt>
      <trkpt lat="59.833864747158" lon="16.969378502712">
        <ele>53.4</ele>
        <time>2019-10-02T08:00:35Z</time>
      </trkpt>
      <trkpt lat="59.833787717497" lon="16.969131152843">
        <ele>54.6</ele>
        <time>2019-10-02T08:00:50Z</time>
      </trkpt>
      <trkpt lat="59.83378914242" lon="16.968811048082">
        <ele>55.8</ele>
        <time>2019-10-02T08:01:06Z</time>
      </trkpt>
      <trkpt lat="59.833804732754" lon="16.968776598473">
        <ele>55.8</ele>
        <time>2019-10-02T08:01:10Z</time>
      </trkpt>
      <trkpt lat="59.833797021406" lon="16.968601332944">
        <ele>56.8</ele>
        <time>2019-10-02T08:01:23Z</time>
      </trkpt>
      <trkpt lat="59.833725020885" lon="16.967211865381">
        <ele>56.6</ele>
        <time>2019-10-02T08:02:35Z</time>
      </trkpt>
      <trkpt lat="59.833750501861" lon="16.967150509873">
        <ele>56.4</ele>
        <time>2019-10-02T08:02:38Z</time>
      </trkpt>
      <trkpt lat="59.833783945642" lon="16.967125783268">
        <ele>56</ele>
        <time>2019-10-02T08:02:41Z</time>
      </trkpt>
      <trkpt lat="59.833807079686" lon="16.967104828518">
        <ele>55.8</ele>
        <time>2019-10-02T08:02:45Z</time>
      </trkpt>
      <trkpt lat="59.833805822401" lon="16.967104744699">
        <ele>55.8</ele>
        <time>2019-10-02T08:02:46Z</time>
      </trkpt>
      <trkpt lat="59.833880421311" lon="16.967059063344">
        <ele>55.4</ele>
        <time>2019-10-02T08:02:53Z</time>
      </trkpt>
      <trkpt lat="59.833878242017" lon="16.966825878886">
        <ele>55.6</ele>
        <time>2019-10-02T08:03:04Z</time>
      </trkpt>
      <trkpt lat="59.834008999657" lon="16.966607027477">
        <ele>54.8</ele>
        <time>2019-10-02T08:03:17Z</time>
      </trkpt>
      <trkpt lat="59.834125508067" lon="16.966519855717">
        <ele>54.4</ele>
        <time>2019-10-02T08:03:25Z</time>
      </trkpt>
      <trkpt lat="59.834199268787" lon="16.966630412978">
        <ele>54</ele>
        <time>2019-10-02T08:03:31Z</time>
      </trkpt>
      <trkpt lat="59.834294906266" lon="16.966429498835">
        <ele>53.4</ele>
        <time>2019-10-02T08:03:41Z</time>
      </trkpt>
      <trkpt lat="59.83428367452" lon="16.966022892866">
        <ele>53.6</ele>
        <time>2019-10-02T08:03:49Z</time>
      </trkpt>
      <trkpt lat="59.834227767247" lon="16.965640091493">
        <ele>55.4</ele>
        <time>2019-10-02T08:03:57Z</time>
      </trkpt>
      <trkpt lat="59.834169596861" lon="16.965295763041">
        <ele>58.2</ele>
        <time>2019-10-02T08:04:04Z</time>
      </trkpt>
      <trkpt lat="59.834112516122" lon="16.964921762663">
        <ele>60.8</ele>
        <time>2019-10-02T08:04:12Z</time>
      </trkpt>
      <trkpt lat="59.834049735691" lon="16.964585229378">
        <ele>63</ele>
        <time>2019-10-02T08:04:19Z</time>
      </trkpt>
      <trkpt lat="59.834015202263" lon="16.964217431606">
        <ele>65.2</ele>
        <time>2019-10-02T08:04:26Z</time>
      </trkpt>
      <trkpt lat="59.834000031024" lon="16.963819626632">
        <ele>66.8</ele>
        <time>2019-10-02T08:04:33Z</time>
      </trkpt>
      <trkpt lat="59.834008832019" lon="16.963459624027">
        <ele>70.2</ele>
        <time>2019-10-02T08:04:40Z</time>
      </trkpt>
      <trkpt lat="59.83400120449" lon="16.963083360536">
        <ele>71.6</ele>
        <time>2019-10-02T08:04:47Z</time>
      </trkpt>
      <trkpt lat="59.833987374355" lon="16.962664433174">
        <ele>71</ele>
        <time>2019-10-02T08:04:54Z</time>
      </trkpt>
      <trkpt lat="59.833982596672" lon="16.962293282642">
        <ele>69.2</ele>
        <time>2019-10-02T08:05:00Z</time>
      </trkpt>
      <trkpt lat="59.833989218373" lon="16.961885000293">
        <ele>68</ele>
        <time>2019-10-02T08:05:08Z</time>
      </trkpt>
      <trkpt lat="59.833978908636" lon="16.961522399299">
        <ele>64</ele>
        <time>2019-10-02T08:05:15Z</time>
      </trkpt>
      <trkpt lat="59.833921660259" lon="16.961134987881">
        <ele>61.2</ele>
        <time>2019-10-02T08:05:23Z</time>
      </trkpt>
      <trkpt lat="59.833853850688" lon="16.960781439339">
        <ele>58.4</ele>
        <time>2019-10-02T08:05:30Z</time>
      </trkpt>
      <trkpt lat="59.833840607286" lon="16.960033270945">
        <ele>58.8</ele>
        <time>2019-10-02T08:05:44Z</time>
      </trkpt>
      <trkpt lat="59.833896095464" lon="16.959672597788">
        <ele>59.6</ele>
        <time>2019-10-02T08:05:51Z</time>
      </trkpt>
      <trkpt lat="59.833948314701" lon="16.959305554387">
        <ele>62.8</ele>
        <time>2019-10-02T08:05:59Z</time>
      </trkpt>
      <trkpt lat="59.833877906741" lon="16.958954268958">
        <ele>63.6</ele>
        <time>2019-10-02T08:06:07Z</time>
      </trkpt>
      <trkpt lat="59.833739856848" lon="16.95870934984">
        <ele>64.2</ele>
        <time>2019-10-02T08:06:14Z</time>
      </trkpt>
      <trkpt lat="59.833604321525" lon="16.958457809021">
        <ele>64.2</ele>
        <time>2019-10-02T08:06:22Z</time>
      </trkpt>
      <trkpt lat="59.833472558057" lon="16.958163771969">
        <ele>61.6</ele>
        <time>2019-10-02T08:06:30Z</time>
      </trkpt>
      <trkpt lat="59.833344817901" lon="16.957876691894">
        <ele>61.8</ele>
        <time>2019-10-02T08:06:38Z</time>
      </trkpt>
      <trkpt lat="59.833247755499" lon="16.957562454463">
        <ele>62.2</ele>
        <time>2019-10-02T08:06:46Z</time>
      </trkpt>
      <trkpt lat="59.833153291486" lon="16.957226004997">
        <ele>60.6</ele>
        <time>2019-10-02T08:06:54Z</time>
      </trkpt>
      <trkpt lat="59.833075926549" lon="16.956897769793">
        <ele>61</ele>
        <time>2019-10-02T08:07:02Z</time>
      </trkpt>
      <trkpt lat="59.832991017902" lon="16.956566684743">
        <ele>62.8</ele>
        <time>2019-10-02T08:07:11Z</time>
      </trkpt>
      <trkpt lat="59.832922789236" lon="16.956191343261">
        <ele>64.2</ele>
        <time>2019-10-02T08:07:20Z</time>
      </trkpt>
      <trkpt lat="59.832890183645" lon="16.955798148332">
        <ele>65.6</ele>
        <time>2019-10-02T08:07:28Z</time>
      </trkpt>
      <trkpt lat="59.832932260783" lon="16.955421717203">
        <ele>69.8</ele>
        <time>2019-10-02T08:07:36Z</time>
      </trkpt>
      <trkpt lat="59.832977942138" lon="16.955056266363">
        <ele>71.6</ele>
        <time>2019-10-02T08:07:43Z</time>
      </trkpt>
      <trkpt lat="59.833024126407" lon="16.954698694509">
        <ele>72.8</ele>
        <time>2019-10-02T08:07:50Z</time>
      </trkpt>
      <trkpt lat="59.832991269359" lon="16.95433567442">
        <ele>72.2</ele>
        <time>2019-10-02T08:07:57Z</time>
      </trkpt>
      <trkpt lat="59.832932176964" lon="16.953957147816">
        <ele>71.8</ele>
        <time>2019-10-02T08:08:05Z</time>
      </trkpt>
      <trkpt lat="59.832883981039" lon="16.953603263998">
        <ele>71.8</ele>
        <time>2019-10-02T08:08:12Z</time>
      </trkpt>
      <trkpt lat="59.832833689639" lon="16.953217696598">
        <ele>72</ele>
        <time>2019-10-02T08:08:19Z</time>
      </trkpt>
      <trkpt lat="59.832766382982" lon="16.95282777061">
        <ele>75</ele>
        <time>2019-10-02T08:08:27Z</time>
      </trkpt>
      <trkpt lat="59.832693376633" lon="16.952462655046">
        <ele>77.8</ele>
        <time>2019-10-02T08:08:34Z</time>
      </trkpt>
      <trkpt lat="59.832641744129" lon="16.952102903898">
        <ele>77.8</ele>
        <time>2019-10-02T08:08:41Z</time>
      </trkpt>
      <trkpt lat="59.832560942613" lon="16.951745080587">
        <ele>76.2</ele>
        <time>2019-10-02T08:08:49Z</time>
      </trkpt>
      <trkpt lat="59.832439153606" lon="16.951470238086">
        <ele>74.4</ele>
        <time>2019-10-02T08:08:56Z</time>
      </trkpt>
      <trkpt lat="59.832318454246" lon="16.951165304564">
        <ele>74.2</ele>
        <time>2019-10-02T08:09:03Z</time>
      </trkpt>
      <trkpt lat="59.832221140387" lon="16.950810834013">
        <ele>73</ele>
        <time>2019-10-02T08:09:11Z</time>
      </trkpt>
      <trkpt lat="59.832099183742" lon="16.950494920202">
        <ele>72.2</ele>
        <time>2019-10-02T08:09:18Z</time>
      </trkpt>
      <trkpt lat="59.83198619573" lon="16.950214210371">
        <ele>71.2</ele>
        <time>2019-10-02T08:09:24Z</time>
      </trkpt>
      <trkpt lat="59.831861473058" lon="16.949937523852">
        <ele>71.4</ele>
        <time>2019-10-02T08:09:31Z</time>
      </trkpt>
      <trkpt lat="59.831712694333" lon="16.949684055196">
        <ele>69.4</ele>
        <time>2019-10-02T08:09:38Z</time>
      </trkpt>
      <trkpt lat="59.831536758252" lon="16.949506191278">
        <ele>65</ele>
        <time>2019-10-02T08:09:45Z</time>
      </trkpt>
      <trkpt lat="59.831360151619" lon="16.949358334562">
        <ele>59.8</ele>
        <time>2019-10-02T08:09:52Z</time>
      </trkpt>
      <trkpt lat="59.831182622977" lon="16.949187762897">
        <ele>54.4</ele>
        <time>2019-10-02T08:10:00Z</time>
      </trkpt>
      <trkpt lat="59.831019930298" lon="16.948976874293">
        <ele>52.4</ele>
        <time>2019-10-02T08:10:07Z</time>
      </trkpt>
      <trkpt lat="59.830865032786" lon="16.948719298506">
        <ele>52.2</ele>
        <time>2019-10-02T08:10:15Z</time>
      </trkpt>
      <trkpt lat="59.830710722007" lon="16.948473960293">
        <ele>52</ele>
        <time>2019-10-02T08:10:22Z</time>
      </trkpt>
      <trkpt lat="59.830568564983" lon="16.948184700924">
        <ele>52.6</ele>
        <time>2019-10-02T08:10:29Z</time>
      </trkpt>
      <trkpt lat="59.830440824827" lon="16.947896531202">
        <ele>52.8</ele>
        <time>2019-10-02T08:10:36Z</time>
      </trkpt>
      <trkpt lat="59.830337392181" lon="16.947603499978">
        <ele>52.6</ele>
        <time>2019-10-02T08:10:43Z</time>
      </trkpt>
      <trkpt lat="59.830236641743" lon="16.947302003035">
        <ele>51.6</ele>
        <time>2019-10-02T08:10:50Z</time>
      </trkpt>
      <trkpt lat="59.830131448898" lon="16.94699564459">
        <ele>51.4</ele>
        <time>2019-10-02T08:10:57Z</time>
      </trkpt>
      <trkpt lat="59.830052239943" lon="16.946671684155">
        <ele>51</ele>
        <time>2019-10-02T08:11:05Z</time>
      </trkpt>
      <trkpt lat="59.82997370154" lon="16.946318470889">
        <ele>49.6</ele>
        <time>2019-10-02T08:11:12Z</time>
      </trkpt>
      <trkpt lat="59.829935228619" lon="16.945971208772">
        <ele>49.2</ele>
        <time>2019-10-02T08:11:18Z</time>
      </trkpt>
      <trkpt lat="59.82997956887" lon="16.945404927608">
        <ele>54</ele>
        <time>2019-10-02T08:11:29Z</time>
      </trkpt>
      <trkpt lat="59.830006055674" lon="16.945035788732">
        <ele>57.2</ele>
        <time>2019-10-02T08:11:36Z</time>
      </trkpt>
      <trkpt lat="59.830041175835" lon="16.94466380001">
        <ele>57.6</ele>
        <time>2019-10-02T08:11:43Z</time>
      </trkpt>
      <trkpt lat="59.829984262734" lon="16.944270521262">
        <ele>57.8</ele>
        <time>2019-10-02T08:11:50Z</time>
      </trkpt>
      <trkpt lat="59.829904634684" lon="16.943948069569">
        <ele>54.2</ele>
        <time>2019-10-02T08:11:57Z</time>
      </trkpt>
      <trkpt lat="59.829780414926" lon="16.943645734436">
        <ele>52</ele>
        <time>2019-10-02T08:12:05Z</time>
      </trkpt>
      <trkpt lat="59.829615207677" lon="16.943493854408">
        <ele>50.8</ele>
        <time>2019-10-02T08:12:13Z</time>
      </trkpt>
      <trkpt lat="59.8294238489" lon="16.943432079805">
        <ele>51.6</ele>
        <time>2019-10-02T08:12:21Z</time>
      </trkpt>
      <trkpt lat="59.829222012748" lon="16.943433169452">
        <ele>51.6</ele>
        <time>2019-10-02T08:12:29Z</time>
      </trkpt>
      <trkpt lat="59.82901648856" lon="16.943428224131">
        <ele>50.8</ele>
        <time>2019-10-02T08:12:37Z</time>
      </trkpt>
      <trkpt lat="59.828837367357" lon="16.943401737327">
        <ele>50.4</ele>
        <time>2019-10-02T08:12:44Z</time>
      </trkpt>
      <trkpt lat="59.828678027438" lon="16.943244073788">
        <ele>50.4</ele>
        <time>2019-10-02T08:12:51Z</time>
      </trkpt>
      <trkpt lat="59.828559591191" lon="16.942969147468">
        <ele>50.4</ele>
        <time>2019-10-02T08:12:58Z</time>
      </trkpt>
      <trkpt lat="59.828437047813" lon="16.942849789212">
        <ele>51.8</ele>
        <time>2019-10-02T08:13:04Z</time>
      </trkpt>
      <trkpt lat="59.828383571291" lon="16.942997394471">
        <ele>51</ele>
        <time>2019-10-02T08:13:08Z</time>
      </trkpt>
      <trkpt lat="59.828254909126" lon="16.943309871703">
        <ele>47.6</ele>
        <time>2019-10-02T08:13:16Z</time>
      </trkpt>
      <trkpt lat="59.828103867288" lon="16.94353475808">
        <ele>46.2</ele>
        <time>2019-10-02T08:13:23Z</time>
      </trkpt>
      <trkpt lat="59.827938073306" lon="16.943732068006">
        <ele>47.6</ele>
        <time>2019-10-02T08:13:30Z</time>
      </trkpt>
      <trkpt lat="59.827759790293" lon="16.943921247489">
        <ele>47.2</ele>
        <time>2019-10-02T08:13:38Z</time>
      </trkpt>
      <trkpt lat="59.827583602755" lon="16.944116881035">
        <ele>47.8</ele>
        <time>2019-10-02T08:13:46Z</time>
      </trkpt>
      <trkpt lat="59.827425520121" lon="16.944314358599">
        <ele>50.8</ele>
        <time>2019-10-02T08:13:53Z</time>
      </trkpt>
      <trkpt lat="59.827269197686" lon="16.944503957177">
        <ele>52.4</ele>
        <time>2019-10-02T08:14:00Z</time>
      </trkpt>
      <trkpt lat="59.827112456156" lon="16.944694477764">
        <ele>54.4</ele>
        <time>2019-10-02T08:14:07Z</time>
      </trkpt>
      <trkpt lat="59.826954624979" lon="16.944890865681">
        <ele>55.2</ele>
        <time>2019-10-02T08:14:14Z</time>
      </trkpt>
      <trkpt lat="59.826792351395" lon="16.945076524766">
        <ele>56</ele>
        <time>2019-10-02T08:14:21Z</time>
      </trkpt>
      <trkpt lat="59.82660836869" lon="16.945249359544">
        <ele>55.4</ele>
        <time>2019-10-02T08:14:29Z</time>
      </trkpt>
      <trkpt lat="59.826425727089" lon="16.945379781908">
        <ele>53.4</ele>
        <time>2019-10-02T08:14:36Z</time>
      </trkpt>
      <trkpt lat="59.826246186791" lon="16.945510791005">
        <ele>50.8</ele>
        <time>2019-10-02T08:14:43Z</time>
      </trkpt>
      <trkpt lat="59.826065640665" lon="16.94564951145">
        <ele>50.6</ele>
        <time>2019-10-02T08:14:50Z</time>
      </trkpt>
      <trkpt lat="59.825895236638" lon="16.945772641561">
        <ele>50.8</ele>
        <time>2019-10-02T08:14:57Z</time>
      </trkpt>
      <trkpt lat="59.825701614748" lon="16.945897112776">
        <ele>48.8</ele>
        <time>2019-10-02T08:15:05Z</time>
      </trkpt>
      <trkpt lat="59.825520900984" lon="16.946039521257">
        <ele>49</ele>
        <time>2019-10-02T08:15:13Z</time>
      </trkpt>
      <trkpt lat="59.825327865827" lon="16.946117724384">
        <ele>50.2</ele>
        <time>2019-10-02T08:15:21Z</time>
      </trkpt>
      <trkpt lat="59.82513063972" lon="16.946173631657">
        <ele>52</ele>
        <time>2019-10-02T08:15:29Z</time>
      </trkpt>
      <trkpt lat="59.824929222663" lon="16.9462320535">
        <ele>51.8</ele>
        <time>2019-10-02T08:15:37Z</time>
      </trkpt>
      <trkpt lat="59.824750520555" lon="16.946298941062">
        <ele>49.6</ele>
        <time>2019-10-02T08:15:44Z</time>
      </trkpt>
      <trkpt lat="59.824565448203" lon="16.94636784028">
        <ele>48.6</ele>
        <time>2019-10-02T08:15:51Z</time>
      </trkpt>
      <trkpt lat="59.824374005607" lon="16.946357782">
        <ele>48</ele>
        <time>2019-10-02T08:15:58Z</time>
      </trkpt>
      <trkpt lat="59.824186167228" lon="16.946260887236">
        <ele>47</ele>
        <time>2019-10-02T08:16:05Z</time>
      </trkpt>
      <trkpt lat="59.824000340505" lon="16.946181426824">
        <ele>45.8</ele>
        <time>2019-10-02T08:16:12Z</time>
      </trkpt>
      <trkpt lat="59.82379456486" lon="16.946214619148">
        <ele>43.6</ele>
        <time>2019-10-02T08:16:20Z</time>
      </trkpt>
      <trkpt lat="59.823617203856" lon="16.946346131159">
        <ele>42.8</ele>
        <time>2019-10-02T08:16:27Z</time>
      </trkpt>
      <trkpt lat="59.823460629964" lon="16.946532628434">
        <ele>42.4</ele>
        <time>2019-10-02T08:16:33Z</time>
      </trkpt>
      <trkpt lat="59.823293075783" lon="16.946718036062">
        <ele>42.4</ele>
        <time>2019-10-02T08:16:40Z</time>
      </trkpt>
      <trkpt lat="59.823130383104" lon="16.946919117843">
        <ele>43.2</ele>
        <time>2019-10-02T08:16:47Z</time>
      </trkpt>
      <trkpt lat="59.822981939655" lon="16.9471205349">
        <ele>43.2</ele>
        <time>2019-10-02T08:16:54Z</time>
      </trkpt>
      <trkpt lat="59.822829221437" lon="16.94732756783">
        <ele>44.4</ele>
        <time>2019-10-02T08:17:01Z</time>
      </trkpt>
      <trkpt lat="59.822596456074" lon="16.947684720589">
        <ele>45.4</ele>
        <time>2019-10-02T08:17:13Z</time>
      </trkpt>
      <trkpt lat="59.82245681362" lon="16.94794531386">
        <ele>46.2</ele>
        <time>2019-10-02T08:17:21Z</time>
      </trkpt>
      <trkpt lat="59.822302838117" lon="16.948212361194">
        <ele>47.2</ele>
        <time>2019-10-02T08:17:29Z</time>
      </trkpt>
      <trkpt lat="59.822154562306" lon="16.94848510822">
        <ele>48.6</ele>
        <time>2019-10-02T08:17:37Z</time>
      </trkpt>
      <trkpt lat="59.822023553209" lon="16.948762213834">
        <ele>49.4</ele>
        <time>2019-10-02T08:17:45Z</time>
      </trkpt>
      <trkpt lat="59.821883575479" lon="16.949009563703">
        <ele>48.8</ele>
        <time>2019-10-02T08:17:52Z</time>
      </trkpt>
      <trkpt lat="59.821720547524" lon="16.949250208052">
        <ele>49.6</ele>
        <time>2019-10-02T08:18:00Z</time>
      </trkpt>
      <trkpt lat="59.821630945013" lon="16.949572408288">
        <ele>47</ele>
        <time>2019-10-02T08:18:07Z</time>
      </trkpt>
      <trkpt lat="59.821596746861" lon="16.949937356214">
        <ele>46.6</ele>
        <time>2019-10-02T08:18:14Z</time>
      </trkpt>
      <trkpt lat="59.821635135963" lon="16.950306327452">
        <ele>45.2</ele>
        <time>2019-10-02T08:18:22Z</time>
      </trkpt>
      <trkpt lat="59.821715099289" lon="16.950659959813">
        <ele>44.8</ele>
        <time>2019-10-02T08:18:30Z</time>
      </trkpt>
      <trkpt lat="59.821756002961" lon="16.951060363176">
        <ele>45</ele>
        <time>2019-10-02T08:18:38Z</time>
      </trkpt>
      <trkpt lat="59.821763379033" lon="16.951448193689">
        <ele>45</ele>
        <time>2019-10-02T08:18:45Z</time>
      </trkpt>
      <trkpt lat="59.82174267574" lon="16.951817248746">
        <ele>43.2</ele>
        <time>2019-10-02T08:18:52Z</time>
      </trkpt>
      <trkpt lat="59.821709902511" lon="16.952169875279">
        <ele>41.2</ele>
        <time>2019-10-02T08:18:59Z</time>
      </trkpt>
      <trkpt lat="59.821686181734" lon="16.952529877884">
        <ele>39.6</ele>
        <time>2019-10-02T08:19:06Z</time>
      </trkpt>
      <trkpt lat="59.821669501753" lon="16.952885354263">
        <ele>39.6</ele>
        <time>2019-10-02T08:19:13Z</time>
      </trkpt>
      <trkpt lat="59.821657012722" lon="16.953238399891">
        <ele>41.8</ele>
        <time>2019-10-02T08:19:20Z</time>
      </trkpt>
      <trkpt lat="59.8216286819" lon="16.95361483102">
        <ele>45.6</ele>
        <time>2019-10-02T08:19:28Z</time>
      </trkpt>
      <trkpt lat="59.821586018029" lon="16.953973660159">
        <ele>46.8</ele>
        <time>2019-10-02T08:19:36Z</time>
      </trkpt>
      <trkpt lat="59.821526338901" lon="16.95433651261">
        <ele>49.2</ele>
        <time>2019-10-02T08:19:44Z</time>
      </trkpt>
      <trkpt lat="59.821417625658" lon="16.954669190221">
        <ele>48.4</ele>
        <time>2019-10-02T08:19:52Z</time>
      </trkpt>
      <trkpt lat="59.82129592047" lon="16.954964233101">
        <ele>47.4</ele>
        <time>2019-10-02T08:20:00Z</time>
      </trkpt>
      <trkpt lat="59.821160217509" lon="16.955201105595">
        <ele>46.8</ele>
        <time>2019-10-02T08:20:07Z</time>
      </trkpt>
      <trkpt lat="59.821005236178" lon="16.955386680861">
        <ele>45.8</ele>
        <time>2019-10-02T08:20:15Z</time>
      </trkpt>
      <trkpt lat="59.820837346721" lon="16.955562281666">
        <ele>45.2</ele>
        <time>2019-10-02T08:20:26Z</time>
      </trkpt>
      <trkpt lat="59.820776997041" lon="16.955609136487">
        <ele>45</ele>
        <time>2019-10-02T08:20:30Z</time>
      </trkpt>
      <trkpt lat="59.820605754824" lon="16.955715921893">
        <ele>44.6</ele>
        <time>2019-10-02T08:20:41Z</time>
      </trkpt>
      <trkpt lat="59.820480613057" lon="16.955808877164">
        <ele>44.4</ele>
        <time>2019-10-02T08:20:50Z</time>
      </trkpt>
      <trkpt lat="59.820374330565" lon="16.955879704219">
        <ele>43.6</ele>
        <time>2019-10-02T08:20:58Z</time>
      </trkpt>
      <trkpt lat="59.820314567618" lon="16.955930498533">
        <ele>43</ele>
        <time>2019-10-02T08:21:02Z</time>
      </trkpt>
      <trkpt lat="59.82013838008" lon="16.95602127451">
        <ele>42.4</ele>
        <time>2019-10-02T08:21:15Z</time>
      </trkpt>
      <trkpt lat="59.819986248595" lon="16.956213722934">
        <ele>43</ele>
        <time>2019-10-02T08:21:26Z</time>
      </trkpt>
      <trkpt lat="59.819838559517" lon="16.956467023952">
        <ele>43.4</ele>
        <time>2019-10-02T08:21:34Z</time>
      </trkpt>
      <trkpt lat="59.819719620356" lon="16.956754020208">
        <ele>42</ele>
        <time>2019-10-02T08:21:41Z</time>
      </trkpt>
      <trkpt lat="59.819607470534" lon="16.9570782321">
        <ele>42.6</ele>
        <time>2019-10-02T08:21:49Z</time>
      </trkpt>
      <trkpt lat="59.819498422015" lon="16.957366653279">
        <ele>44</ele>
        <time>2019-10-02T08:21:56Z</time>
      </trkpt>
      <trkpt lat="59.819354756249" lon="16.957618948469">
        <ele>46</ele>
        <time>2019-10-02T08:22:03Z</time>
      </trkpt>
      <trkpt lat="59.819159038884" lon="16.957709472989">
        <ele>46</ele>
        <time>2019-10-02T08:22:10Z</time>
      </trkpt>
      <trkpt lat="59.818959968759" lon="16.957693379741">
        <ele>44.4</ele>
        <time>2019-10-02T08:22:17Z</time>
      </trkpt>
      <trkpt lat="59.818760311901" lon="16.95768508166">
        <ele>43.2</ele>
        <time>2019-10-02T08:22:24Z</time>
      </trkpt>
      <trkpt lat="59.818565181269" lon="16.957589108905">
        <ele>41.8</ele>
        <time>2019-10-02T08:22:31Z</time>
      </trkpt>
      <trkpt lat="59.818384383686" lon="16.957432283556">
        <ele>42</ele>
        <time>2019-10-02T08:22:38Z</time>
      </trkpt>
      <trkpt lat="59.818194533651" lon="16.957324827598">
        <ele>41.2</ele>
        <time>2019-10-02T08:22:45Z</time>
      </trkpt>
      <trkpt lat="59.818003258693" lon="16.957278140415">
        <ele>41.4</ele>
        <time>2019-10-02T08:22:52Z</time>
      </trkpt>
      <trkpt lat="59.817814414486" lon="16.957342597226">
        <ele>40</ele>
        <time>2019-10-02T08:22:59Z</time>
      </trkpt>
      <trkpt lat="59.817633449265" lon="16.957483664603">
        <ele>39.8</ele>
        <time>2019-10-02T08:23:06Z</time>
      </trkpt>
      <trkpt lat="59.81746539217" lon="16.957655325915">
        <ele>38.4</ele>
        <time>2019-10-02T08:23:13Z</time>
      </trkpt>
      <trkpt lat="59.817131960188" lon="16.957992445933">
        <ele>39.2</ele>
        <time>2019-10-02T08:23:27Z</time>
      </trkpt>
      <trkpt lat="59.816963651636" lon="16.9581343515">
        <ele>40</ele>
        <time>2019-10-02T08:23:34Z</time>
      </trkpt>
      <trkpt lat="59.816790146306" lon="16.958287824089">
        <ele>42.4</ele>
        <time>2019-10-02T08:23:41Z</time>
      </trkpt>
      <trkpt lat="59.816619071727" lon="16.958419587557">
        <ele>46.2</ele>
        <time>2019-10-02T08:23:48Z</time>
      </trkpt>
      <trkpt lat="59.816446404587" lon="16.958599798407">
        <ele>44.2</ele>
        <time>2019-10-02T08:23:56Z</time>
      </trkpt>
      <trkpt lat="59.816263679167" lon="16.95878981608">
        <ele>43.4</ele>
        <time>2019-10-02T08:24:04Z</time>
      </trkpt>
      <trkpt lat="59.816089587104" lon="16.958916718046">
        <ele>41.8</ele>
        <time>2019-10-02T08:24:12Z</time>
      </trkpt>
      <trkpt lat="59.815901497268" lon="16.959081673838">
        <ele>41.8</ele>
        <time>2019-10-02T08:24:20Z</time>
      </trkpt>
      <trkpt lat="59.815716844011" lon="16.959213521125">
        <ele>41.6</ele>
        <time>2019-10-02T08:24:28Z</time>
      </trkpt>
      <trkpt lat="59.815534705324" lon="16.95932122854">
        <ele>40.4</ele>
        <time>2019-10-02T08:24:36Z</time>
      </trkpt>
      <trkpt lat="59.815344100918" lon="16.959416530743">
        <ele>40.4</ele>
        <time>2019-10-02T08:24:44Z</time>
      </trkpt>
      <trkpt lat="59.815156011082" lon="16.959489453273">
        <ele>39.4</ele>
        <time>2019-10-02T08:24:52Z</time>
      </trkpt>
      <trkpt lat="59.814956521862" lon="16.959579139603">
        <ele>37.8</ele>
        <time>2019-10-02T08:25:00Z</time>
      </trkpt>
      <trkpt lat="59.814779663772" lon="16.95966656282">
        <ele>38</ele>
        <time>2019-10-02T08:25:07Z</time>
      </trkpt>
      <trkpt lat="59.814598279456" lon="16.959748621621">
        <ele>37.6</ele>
        <time>2019-10-02T08:25:14Z</time>
      </trkpt>
      <trkpt lat="59.8144202479" lon="16.959800254125">
        <ele>36.8</ele>
        <time>2019-10-02T08:25:21Z</time>
      </trkpt>
      <trkpt lat="59.814216232454" lon="16.959851718991">
        <ele>35.4</ele>
        <time>2019-10-02T08:25:29Z</time>
      </trkpt>
      <trkpt lat="59.814030992464" lon="16.959912823042">
        <ele>33.8</ele>
        <time>2019-10-02T08:25:36Z</time>
      </trkpt>
      <trkpt lat="59.813835023642" lon="16.95996663484">
        <ele>33.2</ele>
        <time>2019-10-02T08:25:44Z</time>
      </trkpt>
      <trkpt lat="59.813638132811" lon="16.960056991722">
        <ele>32</ele>
        <time>2019-10-02T08:25:52Z</time>
      </trkpt>
      <trkpt lat="59.81345549121" lon="16.960218678573">
        <ele>33.8</ele>
        <time>2019-10-02T08:26:00Z</time>
      </trkpt>
      <trkpt lat="59.813274609808" lon="16.960404924391">
        <ele>34.8</ele>
        <time>2019-10-02T08:26:08Z</time>
      </trkpt>
      <trkpt lat="59.813113258233" lon="16.960570634554">
        <ele>34.8</ele>
        <time>2019-10-02T08:26:15Z</time>
      </trkpt>
      <trkpt lat="59.812949392088" lon="16.960784624461">
        <ele>34.6</ele>
        <time>2019-10-02T08:26:23Z</time>
      </trkpt>
      <trkpt lat="59.812804385218" lon="16.961023508611">
        <ele>35.2</ele>
        <time>2019-10-02T08:26:34Z</time>
      </trkpt>
      <trkpt lat="59.812676477424" lon="16.961274714154">
        <ele>35.8</ele>
        <time>2019-10-02T08:26:46Z</time>
      </trkpt>
      <trkpt lat="59.812654516846" lon="16.961309079944">
        <ele>36</ele>
        <time>2019-10-02T08:26:48Z</time>
      </trkpt>
      <trkpt lat="59.812526273776" lon="16.961577552201">
        <ele>36.4</ele>
        <time>2019-10-02T08:27:00Z</time>
      </trkpt>
      <trkpt lat="59.812379003793" lon="16.961828757744">
        <ele>36.6</ele>
        <time>2019-10-02T08:27:10Z</time>
      </trkpt>
      <trkpt lat="59.812231147077" lon="16.962056493967">
        <ele>38.2</ele>
        <time>2019-10-02T08:27:17Z</time>
      </trkpt>
      <trkpt lat="59.812129893725" lon="16.962361846584">
        <ele>38.4</ele>
        <time>2019-10-02T08:27:25Z</time>
      </trkpt>
      <trkpt lat="59.812153698321" lon="16.962757556083">
        <ele>38.4</ele>
        <time>2019-10-02T08:27:33Z</time>
      </trkpt>
      <trkpt lat="59.81221329363" lon="16.963098196499">
        <ele>39.4</ele>
        <time>2019-10-02T08:27:40Z</time>
      </trkpt>
      <trkpt lat="59.812280432649" lon="16.963484937365">
        <ele>40</ele>
        <time>2019-10-02T08:27:48Z</time>
      </trkpt>
      <trkpt lat="59.812339105949" lon="16.963873270792">
        <ele>41.6</ele>
        <time>2019-10-02T08:27:56Z</time>
      </trkpt>
      <trkpt lat="59.812383613838" lon="16.964252803224">
        <ele>40.8</ele>
        <time>2019-10-02T08:28:04Z</time>
      </trkpt>
      <trkpt lat="59.812409933004" lon="16.964639292633">
        <ele>41.2</ele>
        <time>2019-10-02T08:28:12Z</time>
      </trkpt>
      <trkpt lat="59.812430217202" lon="16.965019495617">
        <ele>42.4</ele>
        <time>2019-10-02T08:28:20Z</time>
      </trkpt>
      <trkpt lat="59.812441448948" lon="16.965401877895">
        <ele>43.8</ele>
        <time>2019-10-02T08:28:28Z</time>
      </trkpt>
      <trkpt lat="59.812420661836" lon="16.965779985404">
        <ele>42.6</ele>
        <time>2019-10-02T08:28:36Z</time>
      </trkpt>
      <trkpt lat="59.812352936084" lon="16.966145268606">
        <ele>41.2</ele>
        <time>2019-10-02T08:28:44Z</time>
      </trkpt>
      <trkpt lat="59.812263082116" lon="16.966474761095">
        <ele>40.2</ele>
        <time>2019-10-02T08:28:52Z</time>
      </trkpt>
      <trkpt lat="59.812184292256" lon="16.966825292153">
        <ele>39</ele>
        <time>2019-10-02T08:29:00Z</time>
      </trkpt>
      <trkpt lat="59.812163924239" lon="16.96720440549">
        <ele>37.8</ele>
        <time>2019-10-02T08:29:08Z</time>
      </trkpt>
      <trkpt lat="59.812225531204" lon="16.967573376728">
        <ele>35.6</ele>
        <time>2019-10-02T08:29:16Z</time>
      </trkpt>
      <trkpt lat="59.812297028811" lon="16.967916280257">
        <ele>33</ele>
        <time>2019-10-02T08:29:24Z</time>
      </trkpt>
      <trkpt lat="59.812378752336" lon="16.968274019749">
        <ele>32.2</ele>
        <time>2019-10-02T08:29:32Z</time>
      </trkpt>
      <trkpt lat="59.812487968493" lon="16.968668891058">
        <ele>32.6</ele>
        <time>2019-10-02T08:29:41Z</time>
      </trkpt>
      <trkpt lat="59.812585533809" lon="16.969021266134">
        <ele>32.6</ele>
        <time>2019-10-02T08:29:49Z</time>
      </trkpt>
      <trkpt lat="59.812684775505" lon="16.969363918206">
        <ele>32.8</ele>
        <time>2019-10-02T08:29:57Z</time>
      </trkpt>
      <trkpt lat="59.812782089364" lon="16.969700116215">
        <ele>33.2</ele>
        <time>2019-10-02T08:30:05Z</time>
      </trkpt>
      <trkpt lat="59.812874793178" lon="16.97002910579">
        <ele>32.2</ele>
        <time>2019-10-02T08:30:13Z</time>
      </trkpt>
      <trkpt lat="59.812969592467" lon="16.970363124505">
        <ele>32.6</ele>
        <time>2019-10-02T08:30:21Z</time>
      </trkpt>
      <trkpt lat="59.813069169439" lon="16.970701920903">
        <ele>33.8</ele>
        <time>2019-10-02T08:30:29Z</time>
      </trkpt>
      <trkpt lat="59.813169249325" lon="16.971040968758">
        <ele>34.6</ele>
        <time>2019-10-02T08:30:37Z</time>
      </trkpt>
      <trkpt lat="59.813271676143" lon="16.971378843147">
        <ele>35</ele>
        <time>2019-10-02T08:30:45Z</time>
      </trkpt>
      <trkpt lat="59.813373600047" lon="16.971715627889">
        <ele>36.8</ele>
        <time>2019-10-02T08:30:53Z</time>
      </trkpt>
      <trkpt lat="59.813469991897" lon="16.972022656886">
        <ele>37.2</ele>
        <time>2019-10-02T08:31:01Z</time>
      </trkpt>
      <trkpt lat="59.813584237194" lon="16.972306300382">
        <ele>39</ele>
        <time>2019-10-02T08:31:12Z</time>
      </trkpt>
      <trkpt lat="59.813671325135" lon="16.97262246565">
        <ele>39.2</ele>
        <time>2019-10-02T08:31:23Z</time>
      </trkpt>
      <trkpt lat="59.813766711157" lon="16.972956735822">
        <ele>38.8</ele>
        <time>2019-10-02T08:31:35Z</time>
      </trkpt>
      <trkpt lat="59.813847680311" lon="16.973292598555">
        <ele>38</ele>
        <time>2019-10-02T08:31:46Z</time>
      </trkpt>
      <trkpt lat="59.81386033698" lon="16.973349092561">
        <ele>37.8</ele>
        <time>2019-10-02T08:31:48Z</time>
      </trkpt>
      <trkpt lat="59.813928062732" lon="16.973685039113">
        <ele>35.8</ele>
        <time>2019-10-02T08:31:59Z</time>
      </trkpt>
      <trkpt lat="59.813988663869" lon="16.97403146304">
        <ele>34</ele>
        <time>2019-10-02T08:32:10Z</time>
      </trkpt>
      <trkpt lat="59.814054126508" lon="16.974377803148">
        <ele>34</ele>
        <time>2019-10-02T08:32:21Z</time>
      </trkpt>
      <trkpt lat="59.814088659936" lon="16.97474811549">
        <ele>35.2</ele>
        <time>2019-10-02T08:32:32Z</time>
      </trkpt>
      <trkpt lat="59.814104585546" lon="16.975110297389">
        <ele>35.6</ele>
        <time>2019-10-02T08:32:43Z</time>
      </trkpt>
      <trkpt lat="59.814106597202" lon="16.975487231432">
        <ele>36.6</ele>
        <time>2019-10-02T08:32:54Z</time>
      </trkpt>
      <trkpt lat="59.814118415681" lon="16.975869110796">
        <ele>37</ele>
        <time>2019-10-02T08:33:06Z</time>
      </trkpt>
      <trkpt lat="59.814123109545" lon="16.976237327663">
        <ele>37.8</ele>
        <time>2019-10-02T08:33:17Z</time>
      </trkpt>
      <trkpt lat="59.814114727645" lon="16.976599258105">
        <ele>37.4</ele>
        <time>2019-10-02T08:33:28Z</time>
      </trkpt>
      <trkpt lat="59.814107686849" lon="16.976706043511">
        <ele>37.6</ele>
        <time>2019-10-02T08:33:31Z</time>
      </trkpt>
      <trkpt lat="59.81410508846" lon="16.97684023773">
        <ele>37.8</ele>
        <time>2019-10-02T08:33:34Z</time>
      </trkpt>
      <trkpt lat="59.814100562234" lon="16.977245418776">
        <ele>38</ele>
        <time>2019-10-02T08:33:42Z</time>
      </trkpt>
      <trkpt lat="59.814086815918" lon="16.977605421381">
        <ele>38.6</ele>
        <time>2019-10-02T08:33:49Z</time>
      </trkpt>
      <trkpt lat="59.814077176733" lon="16.977974811714">
        <ele>38.8</ele>
        <time>2019-10-02T08:33:56Z</time>
      </trkpt>
      <trkpt lat="59.814058401277" lon="16.97837915457">
        <ele>39.4</ele>
        <time>2019-10-02T08:34:04Z</time>
      </trkpt>
      <trkpt lat="59.814046918074" lon="16.978783665064">
        <ele>40.4</ele>
        <time>2019-10-02T08:34:12Z</time>
      </trkpt>
      <trkpt lat="59.814044068228" lon="16.979144170583">
        <ele>41.6</ele>
        <time>2019-10-02T08:34:19Z</time>
      </trkpt>
      <trkpt lat="59.814035686328" lon="16.979548178163">
        <ele>42.6</ele>
        <time>2019-10-02T08:34:27Z</time>
      </trkpt>
      <trkpt lat="59.814036273061" lon="16.979919077238">
        <ele>42</ele>
        <time>2019-10-02T08:34:34Z</time>
      </trkpt>
      <trkpt lat="59.814059155648" lon="16.980287126467">
        <ele>42.2</ele>
        <time>2019-10-02T08:34:41Z</time>
      </trkpt>
      <trkpt lat="59.814088743755" lon="16.980650984746">
        <ele>41</ele>
        <time>2019-10-02T08:34:48Z</time>
      </trkpt>
      <trkpt lat="59.814146075951" lon="16.981036887422">
        <ele>40.8</ele>
        <time>2019-10-02T08:34:56Z</time>
      </trkpt>
      <trkpt lat="59.814211119495" lon="16.981408540868">
        <ele>40.8</ele>
        <time>2019-10-02T08:35:04Z</time>
      </trkpt>
      <trkpt lat="59.814268367872" lon="16.981776003364">
        <ele>41.4</ele>
        <time>2019-10-02T08:35:12Z</time>
      </trkpt>
      <trkpt lat="59.814321928213" lon="16.982144723145">
        <ele>40.2</ele>
        <time>2019-10-02T08:35:20Z</time>
      </trkpt>
      <trkpt lat="59.814389318689" lon="16.982526183414">
        <ele>41.4</ele>
        <time>2019-10-02T08:35:28Z</time>
      </trkpt>
      <trkpt lat="59.814454865147" lon="16.982867410563">
        <ele>42.2</ele>
        <time>2019-10-02T08:35:35Z</time>
      </trkpt>
      <trkpt lat="59.814529547876" lon="16.98324233295">
        <ele>42</ele>
        <time>2019-10-02T08:35:43Z</time>
      </trkpt>
      <trkpt lat="59.814603308596" lon="16.983625050504">
        <ele>40.6</ele>
        <time>2019-10-02T08:35:51Z</time>
      </trkpt>
      <trkpt lat="59.814680002981" lon="16.983980862159">
        <ele>39.8</ele>
        <time>2019-10-02T08:35:59Z</time>
      </trkpt>
      <trkpt lat="59.814754098977" lon="16.984337260547">
        <ele>40.4</ele>
        <time>2019-10-02T08:36:07Z</time>
      </trkpt>
      <trkpt lat="59.814822998195" lon="16.984676392221">
        <ele>40.2</ele>
        <time>2019-10-02T08:36:15Z</time>
      </trkpt>
      <trkpt lat="59.814881336219" lon="16.985014518067">
        <ele>40.8</ele>
        <time>2019-10-02T08:36:23Z</time>
      </trkpt>
      <trkpt lat="59.814951827998" lon="16.985508714891">
        <ele>40.4</ele>
        <time>2019-10-02T08:36:34Z</time>
      </trkpt>
      <trkpt lat="59.814990384738" lon="16.985876931758">
        <ele>40.4</ele>
        <time>2019-10-02T08:36:42Z</time>
      </trkpt>
      <trkpt lat="59.815025923994" lon="16.98624389134">
        <ele>40.6</ele>
        <time>2019-10-02T08:36:50Z</time>
      </trkpt>
      <trkpt lat="59.815052159341" lon="16.986619149003">
        <ele>40.8</ele>
        <time>2019-10-02T08:36:58Z</time>
      </trkpt>
      <trkpt lat="59.815116197057" lon="16.9869764694">
        <ele>41.6</ele>
        <time>2019-10-02T08:37:06Z</time>
      </trkpt>
      <trkpt lat="59.81518048623" lon="16.987341836421">
        <ele>40.8</ele>
        <time>2019-10-02T08:37:15Z</time>
      </trkpt>
      <trkpt lat="59.815233040743" lon="16.987697815714">
        <ele>38</ele>
        <time>2019-10-02T08:37:24Z</time>
      </trkpt>
      <trkpt lat="59.815301437047" lon="16.988072402825">
        <ele>35.4</ele>
        <time>2019-10-02T08:37:33Z</time>
      </trkpt>
      <trkpt lat="59.815362122003" lon="16.988152617608">
        <ele>35.6</ele>
        <time>2019-10-02T08:37:36Z</time>
      </trkpt>
      <trkpt lat="59.815543925414" lon="16.988159071671">
        <ele>41</ele>
        <time>2019-10-02T08:37:43Z</time>
      </trkpt>
      <trkpt lat="59.815730925603" lon="16.98804599984">
        <ele>44.6</ele>
        <time>2019-10-02T08:37:50Z</time>
      </trkpt>
      <trkpt lat="59.815882386536" lon="16.987852713226">
        <ele>44.4</ele>
        <time>2019-10-02T08:37:57Z</time>
      </trkpt>
      <trkpt lat="59.816009204683" lon="16.98758080439">
        <ele>44.2</ele>
        <time>2019-10-02T08:38:05Z</time>
      </trkpt>
      <trkpt lat="59.816163012548" lon="16.987325826992">
        <ele>43.6</ele>
        <time>2019-10-02T08:38:14Z</time>
      </trkpt>
      <trkpt lat="59.816348001081" lon="16.987181323036">
        <ele>47</ele>
        <time>2019-10-02T08:38:22Z</time>
      </trkpt>
      <trkpt lat="59.816537934935" lon="16.987059534029">
        <ele>49</ele>
        <time>2019-10-02T08:38:30Z</time>
      </trkpt>
      <trkpt lat="59.816717810509" lon="16.986935984823">
        <ele>50.4</ele>
        <time>2019-10-02T08:38:38Z</time>
      </trkpt>
      <trkpt lat="59.816904223965" lon="16.986871611831">
        <ele>51</ele>
        <time>2019-10-02T08:38:45Z</time>
      </trkpt>
      <trkpt lat="59.817078735123" lon="16.986765832253">
        <ele>52.4</ele>
        <time>2019-10-02T08:38:52Z</time>
      </trkpt>
      <trkpt lat="59.817245367295" lon="16.986615880062">
        <ele>50.8</ele>
        <time>2019-10-02T08:38:59Z</time>
      </trkpt>
      <trkpt lat="59.817409568716" lon="16.986462491292">
        <ele>49.8</ele>
        <time>2019-10-02T08:39:06Z</time>
      </trkpt>
      <trkpt lat="59.817583157865" lon="16.98631346111">
        <ele>50</ele>
        <time>2019-10-02T08:39:14Z</time>
      </trkpt>
      <trkpt lat="59.817771918253" lon="16.986192258836">
        <ele>49.8</ele>
        <time>2019-10-02T08:39:22Z</time>
      </trkpt>
      <trkpt lat="59.817949782171" lon="16.986116235003">
        <ele>49.6</ele>
        <time>2019-10-02T08:39:29Z</time>
      </trkpt>
      <trkpt lat="59.818131920858" lon="16.986015652203">
        <ele>50.8</ele>
        <time>2019-10-02T08:39:37Z</time>
      </trkpt>
      <trkpt lat="59.818329901336" lon="16.986009533416">
        <ele>51.2</ele>
        <time>2019-10-02T08:39:45Z</time>
      </trkpt>
      <trkpt lat="59.81851480605" lon="16.985938622542">
        <ele>51.4</ele>
        <time>2019-10-02T08:39:53Z</time>
      </trkpt>
      <trkpt lat="59.818701051868" lon="16.985800824106">
        <ele>50</ele>
        <time>2019-10-02T08:40:02Z</time>
      </trkpt>
      <trkpt lat="59.818861481434" lon="16.985636455047">
        <ele>49</ele>
        <time>2019-10-02T08:40:10Z</time>
      </trkpt>
      <trkpt lat="59.819023838837" lon="16.985463620269">
        <ele>46.6</ele>
        <time>2019-10-02T08:40:17Z</time>
      </trkpt>
      <trkpt lat="59.819181586195" lon="16.985282906505">
        <ele>44.4</ele>
        <time>2019-10-02T08:40:24Z</time>
      </trkpt>
      <trkpt lat="59.819256436562" lon="16.985213001459">
        <ele>43.4</ele>
        <time>2019-10-02T08:40:28Z</time>
      </trkpt>
    </trkseg>
  </trk>
</gpx>